createdAt,value
2016-03-19T00:00:18.017Z,0
2016-03-19T00:01:18.035Z,0
2016-03-19T00:02:18.022Z,0
2016-03-19T00:03:18.025Z,0
2016-03-19T00:04:18.028Z,0
2016-03-19T00:05:17.905Z,0
2016-03-19T00:06:18.048Z,0
2016-03-19T00:07:18.050Z,0
2016-03-19T00:08:18.085Z,0
2016-03-19T00:09:18.072Z,0
2016-03-19T00:10:18.075Z,0
2016-03-19T00:11:18.077Z,0
2016-03-19T00:12:18.080Z,0
2016-03-19T00:13:18.083Z,0
2016-03-19T00:14:18.101Z,0
2016-03-19T00:15:18.104Z,0
2016-03-19T00:16:18.122Z,0
2016-03-19T00:17:18.124Z,0
2016-03-19T00:18:18.128Z,0
2016-03-19T00:19:18.130Z,0
2016-03-19T00:20:18.149Z,0
2016-03-19T00:21:18.167Z,0
2016-03-19T00:22:18.170Z,0
2016-03-19T00:23:18.016Z,0
2016-03-19T00:24:18.160Z,0
2016-03-19T00:25:18.178Z,0
2016-03-19T00:26:18.196Z,0
2016-03-19T00:27:18.199Z,0
2016-03-19T00:28:18.029Z,0
2016-03-19T00:29:18.189Z,0
2016-03-19T00:30:18.192Z,0
2016-03-19T00:31:18.226Z,0
2016-03-19T00:32:18.228Z,0
2016-03-19T00:33:18.215Z,0
2016-03-19T00:34:18.234Z,0
2016-03-19T00:35:18.251Z,0
2016-03-19T00:36:18.239Z,0
2016-03-19T00:37:18.241Z,0
2016-03-19T00:38:18.276Z,0
2016-03-19T00:39:18.262Z,0
2016-03-19T00:40:18.297Z,0
2016-03-19T00:41:18.299Z,0
2016-03-19T00:42:18.142Z,0
2016-03-19T00:43:18.270Z,0
2016-03-19T00:44:18.288Z,0
2016-03-19T00:45:18.151Z,0
2016-03-19T00:46:18.295Z,0
2016-03-19T00:47:18.297Z,0
2016-03-19T00:48:18.331Z,0
2016-03-19T00:49:18.365Z,0
2016-03-19T00:50:18.336Z,0
2016-03-19T00:51:18.324Z,0
2016-03-19T00:52:18.342Z,0
2016-03-19T00:53:18.344Z,0
2016-03-19T00:54:18.363Z,0
2016-03-19T00:55:18.350Z,0
2016-03-19T00:56:18.352Z,0
2016-03-19T00:57:18.371Z,0
2016-03-19T00:58:18.374Z,0
2016-03-19T00:59:18.392Z,0
2016-03-19T01:00:18.457Z,0
2016-03-19T01:01:18.398Z,0
2016-03-19T01:02:18.400Z,0
2016-03-19T01:03:18.403Z,0
2016-03-19T01:04:18.420Z,0
2016-03-19T01:05:18.471Z,0
2016-03-19T01:06:18.442Z,0
2016-03-19T01:07:18.429Z,0
2016-03-19T01:08:18.448Z,0
2016-03-19T01:09:18.425Z,0
2016-03-19T01:10:18.278Z,0
2016-03-19T01:11:18.443Z,0
2016-03-19T01:12:18.421Z,0
2016-03-19T01:13:18.414Z,0
2016-03-19T01:14:18.427Z,0
2016-03-19T01:15:18.442Z,0
2016-03-19T01:16:18.458Z,0
2016-03-19T01:17:18.457Z,0
2016-03-19T01:18:18.440Z,0
2016-03-19T01:19:18.457Z,0
2016-03-19T01:20:20.787Z,0
2016-03-19T01:21:18.460Z,0
2016-03-19T01:22:18.462Z,0
2016-03-19T01:23:18.448Z,0
2016-03-19T01:24:18.466Z,0
2016-03-19T01:25:18.468Z,0
2016-03-19T01:26:18.314Z,0
2016-03-19T01:27:18.488Z,0
2016-03-19T01:28:18.490Z,0
2016-03-19T01:29:18.493Z,0
2016-03-19T01:30:18.512Z,0
2016-03-19T01:31:18.546Z,0
2016-03-19T01:32:18.517Z,0
2016-03-19T01:33:18.519Z,0
2016-03-19T01:34:18.522Z,0
2016-03-19T01:35:18.541Z,0
2016-03-19T01:36:18.528Z,0
2016-03-19T01:37:18.562Z,0
2016-03-19T01:38:18.564Z,0
2016-03-19T01:39:18.552Z,0
2016-03-19T01:40:18.554Z,0
2016-03-19T01:41:18.588Z,0
2016-03-19T01:42:18.591Z,0
2016-03-19T01:43:18.577Z,0
2016-03-19T01:44:18.580Z,0
2016-03-19T01:45:18.629Z,0
2016-03-19T01:46:18.617Z,0
2016-03-19T01:47:18.604Z,0
2016-03-19T01:48:18.451Z,0
2016-03-19T01:49:18.610Z,0
2016-03-19T01:50:18.643Z,0
2016-03-19T01:51:18.630Z,0
2016-03-19T01:52:18.632Z,0
2016-03-19T01:53:18.636Z,0
2016-03-19T01:54:18.670Z,0
2016-03-19T01:55:18.673Z,0
2016-03-19T01:56:18.675Z,0
2016-03-19T01:57:18.678Z,0
2016-03-19T01:58:18.681Z,0
2016-03-19T01:59:18.683Z,0
2016-03-19T02:00:18.687Z,0
2016-03-19T02:01:18.689Z,0
2016-03-19T02:02:18.707Z,0
2016-03-19T02:03:18.709Z,0
2016-03-19T02:04:18.712Z,0
2016-03-19T02:05:18.715Z,0
2016-03-19T02:06:18.734Z,0
2016-03-19T02:07:18.970Z,0
2016-03-19T02:08:18.738Z,0
2016-03-19T02:09:18.742Z,0
2016-03-19T02:10:18.744Z,0
2016-03-19T02:11:18.747Z,0
2016-03-19T02:12:18.766Z,0
2016-03-19T02:13:18.768Z,0
2016-03-19T02:14:18.802Z,0
2016-03-19T02:15:18.835Z,0
2016-03-19T02:16:18.792Z,0
2016-03-19T02:17:18.794Z,0
2016-03-19T02:18:18.812Z,0
2016-03-19T02:19:18.799Z,0
2016-03-19T02:20:18.818Z,0
2016-03-19T02:21:18.820Z,0
2016-03-19T02:22:18.823Z,0
2016-03-19T02:23:18.841Z,0
2016-03-19T02:24:18.844Z,0
2016-03-19T02:25:18.846Z,0
2016-03-19T02:26:18.865Z,0
2016-03-19T02:27:19.009Z,0
2016-03-19T02:28:18.871Z,0
2016-03-19T02:29:18.873Z,0
2016-03-19T02:30:18.875Z,0
2016-03-19T02:31:18.909Z,0
2016-03-19T02:32:18.881Z,0
2016-03-19T02:33:18.884Z,0
2016-03-19T02:34:18.903Z,0
2016-03-19T02:35:18.921Z,0
2016-03-19T02:36:18.923Z,0
2016-03-19T02:37:18.941Z,0
2016-03-19T02:38:18.928Z,0
2016-03-19T02:39:18.931Z,0
2016-03-19T02:40:18.934Z,0
2016-03-19T02:41:18.936Z,0
2016-03-19T02:42:18.986Z,0
2016-03-19T02:43:18.958Z,0
2016-03-19T02:44:18.961Z,0
2016-03-19T02:45:18.994Z,0
2016-03-19T02:46:18.982Z,0
2016-03-19T02:47:18.985Z,0
2016-03-19T02:48:18.987Z,0
2016-03-19T02:49:19.005Z,0
2016-03-19T02:50:19.008Z,0
2016-03-19T02:51:19.011Z,0
2016-03-19T02:52:19.013Z,0
2016-03-19T02:53:19.031Z,0
2016-03-19T02:54:19.034Z,0
2016-03-19T02:55:19.037Z,0
2016-03-19T02:56:19.040Z,0
2016-03-19T02:57:19.136Z,0
2016-03-19T02:58:19.045Z,0
2016-03-19T02:59:19.048Z,0
2016-03-19T03:00:19.050Z,0
2016-03-19T03:01:19.069Z,0
2016-03-19T03:02:19.071Z,0
2016-03-19T03:03:19.090Z,0
2016-03-19T03:04:19.092Z,0
2016-03-19T03:05:19.095Z,0
2016-03-19T03:06:19.098Z,0
2016-03-19T03:07:19.116Z,0
2016-03-19T03:08:19.103Z,0
2016-03-19T03:09:19.122Z,0
2016-03-19T03:10:19.124Z,0
2016-03-19T03:11:19.158Z,0
2016-03-19T03:12:19.177Z,0
2016-03-19T03:13:19.164Z,0
2016-03-19T03:14:19.150Z,0
2016-03-19T03:15:19.152Z,0
2016-03-19T03:16:19.155Z,0
2016-03-19T03:17:19.190Z,0
2016-03-19T03:18:19.177Z,0
2016-03-19T03:19:19.195Z,0
2016-03-19T03:20:19.199Z,0
2016-03-19T03:21:19.185Z,0
2016-03-19T03:22:19.218Z,0
2016-03-19T03:23:19.206Z,0
2016-03-19T03:24:19.209Z,0
2016-03-19T03:25:19.227Z,0
2016-03-19T03:26:19.214Z,0
2016-03-19T03:27:19.138Z,0
2016-03-19T03:28:19.235Z,0
2016-03-19T03:29:19.237Z,0
2016-03-19T03:30:19.240Z,0
2016-03-19T03:31:19.259Z,0
2016-03-19T03:32:19.262Z,0
2016-03-19T03:33:19.265Z,0
2016-03-19T03:34:19.267Z,0
2016-03-19T03:35:19.270Z,0
2016-03-19T03:36:19.272Z,0
2016-03-19T03:37:19.306Z,0
2016-03-19T03:38:19.293Z,0
2016-03-19T03:39:19.312Z,0
2016-03-19T03:40:19.314Z,0
2016-03-19T03:41:19.317Z,0
2016-03-19T03:42:19.414Z,0
2016-03-19T03:43:19.323Z,0
2016-03-19T03:44:19.341Z,0
2016-03-19T03:45:19.343Z,0
2016-03-19T03:46:19.346Z,0
2016-03-19T03:47:19.349Z,0
2016-03-19T03:48:19.351Z,0
2016-03-19T03:49:19.354Z,0
2016-03-19T03:50:19.356Z,0
2016-03-19T03:51:19.375Z,0
2016-03-19T03:52:19.377Z,0
2016-03-19T03:53:19.380Z,0
2016-03-19T03:54:19.399Z,0
2016-03-19T03:55:19.417Z,0
2016-03-19T03:56:19.420Z,0
2016-03-19T03:57:19.437Z,0
2016-03-19T03:58:19.441Z,0
2016-03-19T03:59:19.428Z,0
2016-03-19T04:00:19.430Z,0
2016-03-19T04:01:19.433Z,0
2016-03-19T04:02:19.451Z,0
2016-03-19T04:03:19.470Z,0
2016-03-19T04:04:19.456Z,0
2016-03-19T04:05:19.460Z,0
2016-03-19T04:06:19.462Z,0
2016-03-19T04:07:19.464Z,0
2016-03-19T04:08:19.483Z,0
2016-03-19T04:09:19.486Z,0
2016-03-19T04:10:19.504Z,0
2016-03-19T04:11:19.491Z,0
2016-03-19T04:12:19.541Z,0
2016-03-19T04:13:19.496Z,0
2016-03-19T04:14:19.515Z,0
2016-03-19T04:15:19.517Z,0
2016-03-19T04:16:19.536Z,0
2016-03-19T04:17:19.539Z,0
2016-03-19T04:18:19.557Z,0
2016-03-19T04:19:19.544Z,0
2016-03-19T04:20:19.547Z,0
2016-03-19T04:21:19.566Z,0
2016-03-19T04:22:19.552Z,0
2016-03-19T04:23:19.585Z,0
2016-03-19T04:24:19.588Z,0
2016-03-19T04:25:19.576Z,0
2016-03-19T04:26:19.578Z,0
2016-03-19T04:27:19.629Z,0
2016-03-19T04:28:19.599Z,0
2016-03-19T04:29:19.602Z,0
2016-03-19T04:30:19.604Z,0
2016-03-19T04:31:19.623Z,0
2016-03-19T04:32:19.626Z,0
2016-03-19T04:33:19.644Z,0
2016-03-19T04:34:19.631Z,0
2016-03-19T04:35:19.633Z,0
2016-03-19T04:36:19.653Z,0
2016-03-19T04:37:19.655Z,0
2016-03-19T04:38:19.658Z,0
2016-03-19T04:39:19.661Z,0
2016-03-19T04:40:19.663Z,0
2016-03-19T04:41:19.666Z,0
2016-03-19T04:42:19.761Z,0
2016-03-19T04:43:19.687Z,0
2016-03-19T04:44:19.689Z,0
2016-03-19T04:45:19.708Z,0
2016-03-19T04:46:19.710Z,0
2016-03-19T04:47:19.728Z,0
2016-03-19T04:48:19.716Z,0
2016-03-19T04:49:19.718Z,0
2016-03-19T04:50:19.737Z,0
2016-03-19T04:51:19.739Z,0
2016-03-19T04:52:19.742Z,0
2016-03-19T04:53:19.760Z,0
2016-03-19T04:54:19.763Z,0
2016-03-19T04:55:19.782Z,0
2016-03-19T04:56:19.784Z,0
2016-03-19T04:57:19.818Z,0
2016-03-19T04:58:19.790Z,0
2016-03-19T04:59:19.807Z,0
2016-03-19T05:00:19.810Z,0
2016-03-19T05:01:19.798Z,0
2016-03-19T05:02:19.816Z,0
2016-03-19T05:03:19.804Z,0
2016-03-19T05:04:19.806Z,0
2016-03-19T05:05:19.823Z,0
2016-03-19T05:06:19.843Z,0
2016-03-19T05:07:19.829Z,0
2016-03-19T05:08:19.831Z,0
2016-03-19T05:09:19.866Z,0
2016-03-19T05:10:19.837Z,0
2016-03-19T05:11:19.856Z,0
2016-03-19T05:12:19.733Z,0
2016-03-19T05:13:19.893Z,0
2016-03-19T05:14:19.880Z,0
2016-03-19T05:15:19.883Z,0
2016-03-19T05:16:19.885Z,0
2016-03-19T05:17:19.903Z,0
2016-03-19T05:18:19.905Z,0
2016-03-19T05:19:19.908Z,0
2016-03-19T05:20:19.926Z,0
2016-03-19T05:21:19.930Z,0
2016-03-19T05:22:19.932Z,0
2016-03-19T05:23:19.935Z,0
2016-03-19T05:24:19.937Z,0
2016-03-19T05:25:19.941Z,0
2016-03-19T05:26:19.943Z,0
2016-03-19T05:27:19.960Z,0
2016-03-19T05:28:19.980Z,0
2016-03-19T05:29:19.826Z,0
2016-03-19T05:30:19.969Z,0
2016-03-19T05:31:19.971Z,0
2016-03-19T05:32:19.990Z,0
2016-03-19T05:33:19.977Z,0
2016-03-19T05:34:19.979Z,4
2016-03-19T05:35:19.843Z,4
2016-03-19T05:36:20.017Z,4
2016-03-19T05:37:20.035Z,4
2016-03-19T05:38:20.037Z,0
2016-03-19T05:39:20.009Z,4
2016-03-19T05:40:20.028Z,4
2016-03-19T05:41:20.045Z,4
2016-03-19T05:42:20.064Z,4
2016-03-19T05:43:20.066Z,4
2016-03-19T05:44:20.054Z,4
2016-03-19T05:45:20.056Z,4
2016-03-19T05:46:20.075Z,8
2016-03-19T05:47:20.078Z,4
2016-03-19T05:48:20.096Z,8
2016-03-19T05:49:20.099Z,8
2016-03-19T05:50:20.101Z,8
2016-03-19T05:51:20.089Z,12
2016-03-19T05:52:20.107Z,8
2016-03-19T05:53:20.110Z,12
2016-03-19T05:54:20.112Z,12
2016-03-19T05:55:20.130Z,12
2016-03-19T05:56:20.149Z,12
2016-03-19T05:57:20.135Z,8
2016-03-19T05:58:20.169Z,8
2016-03-19T05:59:20.141Z,12
2016-03-19T06:00:20.144Z,12
2016-03-19T06:01:20.146Z,12
2016-03-19T06:02:20.164Z,16
2016-03-19T06:03:20.183Z,16
2016-03-19T06:04:20.185Z,16
2016-03-19T06:05:20.157Z,20
2016-03-19T06:06:20.206Z,16
2016-03-19T06:07:20.209Z,16
2016-03-19T06:08:20.196Z,20
2016-03-19T06:09:20.198Z,16
2016-03-19T06:10:20.218Z,16
2016-03-19T06:11:20.220Z,16
2016-03-19T06:12:20.222Z,16
2016-03-19T06:13:20.226Z,20
2016-03-19T06:14:20.228Z,20
2016-03-19T06:15:20.247Z,20
2016-03-19T06:16:20.249Z,16
2016-03-19T06:17:20.252Z,16
2016-03-19T06:18:20.255Z,20
2016-03-19T06:19:20.257Z,16
2016-03-19T06:20:20.260Z,20
2016-03-19T06:21:20.278Z,20
2016-03-19T06:22:20.281Z,20
2016-03-19T06:23:20.299Z,24
2016-03-19T06:24:20.302Z,24
2016-03-19T06:25:20.304Z,24
2016-03-19T06:26:20.308Z,24
2016-03-19T06:27:20.310Z,20
2016-03-19T06:28:20.328Z,24
2016-03-19T06:29:20.331Z,24
2016-03-19T06:30:20.334Z,24
2016-03-19T06:31:20.340Z,24
2016-03-19T06:32:20.342Z,24
2016-03-19T06:33:20.376Z,24
2016-03-19T06:34:20.363Z,24
2016-03-19T06:35:20.381Z,28
2016-03-19T06:36:20.384Z,32
2016-03-19T06:37:20.371Z,32
2016-03-19T06:38:20.373Z,32
2016-03-19T06:39:20.392Z,32
2016-03-19T06:40:20.394Z,32
2016-03-19T06:41:20.398Z,32
2016-03-19T06:42:20.400Z,36
2016-03-19T06:43:20.403Z,40
2016-03-19T06:44:20.406Z,44
2016-03-19T06:45:20.439Z,48
2016-03-19T06:46:20.426Z,48
2016-03-19T06:47:20.444Z,56
2016-03-19T06:48:20.448Z,60
2016-03-19T06:49:20.450Z,60
2016-03-19T06:50:20.453Z,60
2016-03-19T06:51:20.455Z,60
2016-03-19T06:52:20.474Z,72
2016-03-19T06:53:20.461Z,72
2016-03-19T06:54:20.494Z,72
2016-03-19T06:55:20.482Z,76
2016-03-19T06:56:20.485Z,80
2016-03-19T06:57:20.487Z,76
2016-03-19T06:58:20.490Z,76
2016-03-19T06:59:20.493Z,80
2016-03-19T07:00:20.496Z,80
2016-03-19T07:01:20.529Z,80
2016-03-19T07:02:20.516Z,80
2016-03-19T07:03:20.518Z,76
2016-03-19T07:04:20.522Z,68
2016-03-19T07:05:20.540Z,68
2016-03-19T07:06:20.543Z,72
2016-03-19T07:07:20.546Z,72
2016-03-19T07:08:20.548Z,76
2016-03-19T07:09:20.567Z,76
2016-03-19T07:10:20.570Z,76
2016-03-19T07:11:20.572Z,76
2016-03-19T07:12:20.575Z,76
2016-03-19T07:13:20.608Z,80
2016-03-19T07:14:20.580Z,80
2016-03-19T07:15:20.614Z,84
2016-03-19T07:16:20.600Z,84
2016-03-19T07:17:20.635Z,76
2016-03-19T07:18:20.622Z,80
2016-03-19T07:19:20.625Z,76
2016-03-19T07:20:20.642Z,80
2016-03-19T07:21:20.630Z,84
2016-03-19T07:22:20.648Z,84
2016-03-19T07:23:20.636Z,88
2016-03-19T07:24:20.653Z,84
2016-03-19T07:25:20.656Z,84
2016-03-19T07:26:20.675Z,84
2016-03-19T07:27:20.661Z,92
2016-03-19T07:28:20.680Z,100
2016-03-19T07:29:20.683Z,108
2016-03-19T07:30:20.686Z,120
2016-03-19T07:31:20.688Z,132
2016-03-19T07:32:20.691Z,132
2016-03-19T07:33:20.694Z,136
2016-03-19T07:34:20.712Z,136
2016-03-19T07:35:20.730Z,136
2016-03-19T07:36:20.718Z,136
2016-03-19T07:37:20.720Z,140
2016-03-19T07:38:20.770Z,140
2016-03-19T07:39:20.757Z,144
2016-03-19T07:40:20.743Z,140
2016-03-19T07:41:20.746Z,124
2016-03-19T07:42:20.748Z,128
2016-03-19T07:43:20.768Z,124
2016-03-19T07:44:20.770Z,120
2016-03-19T07:45:20.789Z,120
2016-03-19T07:46:20.775Z,120
2016-03-19T07:47:20.778Z,124
2016-03-19T07:48:20.797Z,120
2016-03-19T07:49:20.799Z,124
2016-03-19T07:50:20.817Z,124
2016-03-19T07:51:20.820Z,120
2016-03-19T07:52:20.823Z,116
2016-03-19T07:53:20.810Z,108
2016-03-19T07:54:20.844Z,112
2016-03-19T07:55:20.830Z,116
2016-03-19T07:56:20.849Z,120
2016-03-19T07:57:20.851Z,120
2016-03-19T07:58:21.213Z,124
2016-03-19T07:59:20.872Z,124
2016-03-19T08:00:20.891Z,128
2016-03-19T08:01:20.877Z,136
2016-03-19T08:02:20.880Z,136
2016-03-19T08:03:20.899Z,140
2016-03-19T08:04:20.885Z,144
2016-03-19T08:05:20.889Z,140
2016-03-19T08:06:20.891Z,148
2016-03-19T08:07:20.910Z,156
2016-03-19T08:08:20.912Z,168
2016-03-19T08:09:20.931Z,160
2016-03-19T08:10:20.933Z,172
2016-03-19T08:11:20.936Z,168
2016-03-19T08:12:20.939Z,172
2016-03-19T08:13:20.942Z,168
2016-03-19T08:14:20.945Z,160
2016-03-19T08:15:20.948Z,168
2016-03-19T08:16:20.950Z,168
2016-03-19T08:17:20.968Z,172
2016-03-19T08:18:20.986Z,168
2016-03-19T08:19:20.973Z,176
2016-03-19T08:20:21.008Z,184
2016-03-19T08:21:20.995Z,188
2016-03-19T08:22:20.981Z,204
2016-03-19T08:23:21.016Z,212
2016-03-19T08:24:21.019Z,220
2016-03-19T08:25:21.052Z,212
2016-03-19T08:26:21.024Z,216
2016-03-19T08:27:21.027Z,236
2016-03-19T08:28:21.061Z,216
2016-03-19T08:29:21.047Z,232
2016-03-19T08:30:21.065Z,232
2016-03-19T08:31:21.052Z,244
2016-03-19T08:32:20.915Z,248
2016-03-19T08:33:21.074Z,244
2016-03-19T08:34:21.077Z,256
2016-03-19T08:35:21.111Z,264
2016-03-19T08:36:21.097Z,276
2016-03-19T08:37:21.099Z,284
2016-03-19T08:38:21.102Z,292
2016-03-19T08:39:21.105Z,296
2016-03-19T08:40:21.107Z,296
2016-03-19T08:41:21.142Z,304
2016-03-19T08:42:21.145Z,312
2016-03-19T08:43:21.210Z,328
2016-03-19T08:44:21.165Z,352
2016-03-19T08:45:21.153Z,360
2016-03-19T08:46:21.156Z,380
2016-03-19T08:47:21.173Z,388
2016-03-19T08:48:21.176Z,388
2016-03-19T08:49:21.178Z,400
2016-03-19T08:50:21.182Z,408
2016-03-19T08:51:21.216Z,416
2016-03-19T08:52:21.202Z,412
2016-03-19T08:53:21.206Z,404
2016-03-19T08:54:21.224Z,396
2016-03-19T08:55:21.227Z,404
2016-03-19T08:56:21.244Z,404
2016-03-19T08:57:21.248Z,400
2016-03-19T08:58:21.360Z,392
2016-03-19T08:59:21.237Z,396
2016-03-19T09:00:21.272Z,392
2016-03-19T09:01:21.258Z,380
2016-03-19T09:02:21.277Z,388
2016-03-19T09:03:21.279Z,392
2016-03-19T09:04:21.282Z,400
2016-03-19T09:05:21.285Z,408
2016-03-19T09:06:21.302Z,420
2016-03-19T09:07:21.306Z,428
2016-03-19T09:08:21.308Z,440
2016-03-19T09:09:21.311Z,452
2016-03-19T09:10:21.313Z,464
2016-03-19T09:11:21.332Z,480
2016-03-19T09:12:21.365Z,492
2016-03-19T09:13:21.478Z,516
2016-03-19T09:14:21.355Z,540
2016-03-19T09:15:21.359Z,556
2016-03-19T09:16:21.361Z,572
2016-03-19T09:17:21.379Z,584
2016-03-19T09:18:21.382Z,588
2016-03-19T09:19:21.400Z,592
2016-03-19T09:20:21.387Z,604
2016-03-19T09:21:21.405Z,592
2016-03-19T09:22:21.393Z,568
2016-03-19T09:23:21.411Z,532
2016-03-19T09:24:21.414Z,500
2016-03-19T09:25:21.416Z,472
2016-03-19T09:26:21.419Z,440
2016-03-19T09:27:21.438Z,416
2016-03-19T09:28:21.315Z,408
2016-03-19T09:29:21.458Z,392
2016-03-19T09:30:21.461Z,392
2016-03-19T09:31:21.464Z,396
2016-03-19T09:32:21.482Z,388
2016-03-19T09:33:21.485Z,380
2016-03-19T09:34:21.488Z,388
2016-03-19T09:35:21.490Z,392
2016-03-19T09:36:21.493Z,396
2016-03-19T09:37:21.511Z,400
2016-03-19T09:38:21.514Z,392
2016-03-19T09:39:21.516Z,396
2016-03-19T09:40:21.519Z,412
2016-03-19T09:41:21.538Z,412
2016-03-19T09:42:21.556Z,420
2016-03-19T09:43:21.684Z,432
2016-03-19T09:44:21.562Z,440
2016-03-19T09:45:21.564Z,448
2016-03-19T09:46:21.582Z,460
2016-03-19T09:47:21.584Z,464
2016-03-19T09:48:21.588Z,464
2016-03-19T09:49:21.590Z,460
2016-03-19T09:50:21.609Z,460
2016-03-19T09:51:21.596Z,464
2016-03-19T09:52:21.614Z,468
2016-03-19T09:53:21.617Z,456
2016-03-19T09:54:21.635Z,456
2016-03-19T09:55:21.669Z,460
2016-03-19T09:56:21.625Z,456
2016-03-19T09:57:21.658Z,452
2016-03-19T09:58:21.724Z,448
2016-03-19T09:59:21.649Z,440
2016-03-19T10:00:21.683Z,440
2016-03-19T10:01:21.670Z,432
2016-03-19T10:02:21.672Z,416
2016-03-19T10:03:21.675Z,404
2016-03-19T10:04:21.693Z,396
2016-03-19T10:05:21.711Z,396
2016-03-19T10:06:21.730Z,396
2016-03-19T10:07:21.717Z,388
2016-03-19T10:08:21.719Z,392
2016-03-19T10:09:21.738Z,400
2016-03-19T10:10:21.740Z,404
2016-03-19T10:11:21.727Z,396
2016-03-19T10:12:21.762Z,388
2016-03-19T10:13:21.796Z,400
2016-03-19T10:14:21.596Z,408
2016-03-19T10:15:21.756Z,408
2016-03-19T10:16:21.743Z,404
2016-03-19T10:17:21.730Z,388
2016-03-19T10:18:21.717Z,380
2016-03-19T10:19:21.734Z,372
2016-03-19T10:20:21.731Z,360
2016-03-19T10:21:21.728Z,360
2016-03-19T10:22:21.742Z,356
2016-03-19T10:23:21.739Z,352
2016-03-19T10:24:21.720Z,340
2016-03-19T10:25:21.736Z,344
2016-03-19T10:26:21.737Z,360
2016-03-19T10:27:21.769Z,352
2016-03-19T10:28:21.660Z,348
2016-03-19T10:29:21.740Z,356
2016-03-19T10:30:21.756Z,356
2016-03-19T10:31:21.758Z,352
2016-03-19T10:32:21.776Z,336
2016-03-19T10:33:21.793Z,328
2016-03-19T10:34:21.795Z,332
2016-03-19T10:35:21.798Z,324
2016-03-19T10:36:21.800Z,304
2016-03-19T10:37:21.834Z,304
2016-03-19T10:38:21.820Z,304
2016-03-19T10:39:21.823Z,304
2016-03-19T10:40:21.809Z,304
2016-03-19T10:41:21.812Z,304
2016-03-19T10:42:21.830Z,296
2016-03-19T10:43:21.786Z,292
2016-03-19T10:44:21.867Z,292
2016-03-19T10:45:21.855Z,296
2016-03-19T10:46:21.858Z,300
2016-03-19T10:47:22.407Z,296
2016-03-19T10:48:21.878Z,304
2016-03-19T10:49:21.880Z,316
2016-03-19T10:50:21.899Z,324
2016-03-19T10:51:21.886Z,324
2016-03-19T10:52:21.904Z,324
2016-03-19T10:53:21.923Z,324
2016-03-19T10:54:21.910Z,328
2016-03-19T10:55:21.960Z,324
2016-03-19T10:56:21.932Z,332
2016-03-19T10:57:21.934Z,340
2016-03-19T10:58:21.843Z,340
2016-03-19T10:59:21.954Z,340
2016-03-19T11:00:21.957Z,344
2016-03-19T11:01:21.960Z,348
2016-03-19T11:02:21.978Z,344
2016-03-19T11:03:21.996Z,336
2016-03-19T11:04:21.999Z,332
2016-03-19T11:05:21.986Z,336
2016-03-19T11:06:22.004Z,336
2016-03-19T11:07:22.007Z,336
2016-03-19T11:08:22.041Z,332
2016-03-19T11:09:22.044Z,332
2016-03-19T11:10:22.031Z,332
2016-03-19T11:11:22.018Z,320
2016-03-19T11:12:22.036Z,316
2016-03-19T11:13:22.086Z,328
2016-03-19T11:14:22.058Z,324
2016-03-19T11:15:22.075Z,316
2016-03-19T11:16:22.078Z,336
2016-03-19T11:17:22.066Z,340
2016-03-19T11:18:22.099Z,340
2016-03-19T11:19:22.086Z,340
2016-03-19T11:20:22.104Z,348
2016-03-19T11:21:22.108Z,348
2016-03-19T11:22:22.110Z,344
2016-03-19T11:23:22.160Z,336
2016-03-19T11:24:22.131Z,332
2016-03-19T11:25:22.134Z,332
2016-03-19T11:26:22.168Z,328
2016-03-19T11:27:22.139Z,324
2016-03-19T11:28:22.143Z,324
2016-03-19T11:29:22.191Z,316
2016-03-19T11:30:22.163Z,320
2016-03-19T11:31:22.181Z,324
2016-03-19T11:32:22.028Z,328
2016-03-19T11:33:22.186Z,332
2016-03-19T11:34:22.189Z,340
2016-03-19T11:35:22.207Z,352
2016-03-19T11:36:22.210Z,360
2016-03-19T11:37:22.213Z,364
2016-03-19T11:38:22.216Z,372
2016-03-19T11:39:22.234Z,380
2016-03-19T11:40:22.253Z,388
2016-03-19T11:41:22.239Z,400
2016-03-19T11:42:22.242Z,404
2016-03-19T11:43:22.260Z,412
2016-03-19T11:44:22.263Z,424
2016-03-19T11:45:22.280Z,424
2016-03-19T11:46:22.268Z,420
2016-03-19T11:47:22.287Z,416
2016-03-19T11:48:22.305Z,424
2016-03-19T11:49:22.308Z,416
2016-03-19T11:50:22.311Z,408
2016-03-19T11:51:22.313Z,404
2016-03-19T11:52:22.331Z,392
2016-03-19T11:53:22.319Z,384
2016-03-19T11:54:22.337Z,384
2016-03-19T11:55:22.371Z,376
2016-03-19T11:56:22.342Z,364
2016-03-19T11:57:22.345Z,340
2016-03-19T11:58:22.379Z,320
2016-03-19T11:59:22.381Z,312
2016-03-19T12:00:22.384Z,308
2016-03-19T12:01:22.387Z,296
2016-03-19T12:02:22.389Z,360
2016-03-19T12:03:22.408Z,396
2016-03-19T12:04:22.395Z,420
2016-03-19T12:05:22.445Z,436
2016-03-19T12:06:22.431Z,436
2016-03-19T12:07:22.418Z,444
2016-03-19T12:08:22.421Z,456
2016-03-19T12:09:22.439Z,468
2016-03-19T12:10:22.458Z,480
2016-03-19T12:11:22.461Z,480
2016-03-19T12:12:22.479Z,488
2016-03-19T12:13:22.467Z,484
2016-03-19T12:14:22.469Z,500
2016-03-19T12:15:22.472Z,520
2016-03-19T12:16:22.474Z,528
2016-03-19T12:17:22.508Z,528
2016-03-19T12:18:22.510Z,532
2016-03-19T12:19:22.514Z,528
2016-03-19T12:20:22.516Z,512
2016-03-19T12:21:22.519Z,504
2016-03-19T12:22:22.521Z,524
2016-03-19T12:23:22.540Z,524
2016-03-19T12:24:22.543Z,492
2016-03-19T12:25:22.561Z,480
2016-03-19T12:26:22.563Z,488
2016-03-19T12:27:22.565Z,472
2016-03-19T12:28:22.585Z,436
2016-03-19T12:29:22.587Z,404
2016-03-19T12:30:22.590Z,388
2016-03-19T12:31:22.608Z,364
2016-03-19T12:32:22.595Z,340
2016-03-19T12:33:22.613Z,328
2016-03-19T12:34:22.615Z,316
2016-03-19T12:35:22.635Z,388
2016-03-19T12:36:22.621Z,400
2016-03-19T12:37:22.623Z,420
2016-03-19T12:38:22.626Z,436
2016-03-19T12:39:22.629Z,456
2016-03-19T12:40:22.648Z,480
2016-03-19T12:41:22.635Z,496
2016-03-19T12:42:22.637Z,528
2016-03-19T12:43:22.656Z,552
2016-03-19T12:44:22.642Z,564
2016-03-19T12:45:22.631Z,552
2016-03-19T12:46:22.633Z,540
2016-03-19T12:47:22.635Z,532
2016-03-19T12:48:22.654Z,496
2016-03-19T12:49:22.641Z,460
2016-03-19T12:50:22.644Z,440
2016-03-19T12:51:22.491Z,404
2016-03-19T12:52:22.633Z,392
2016-03-19T12:53:22.651Z,376
2016-03-19T12:54:22.624Z,356
2016-03-19T12:55:22.626Z,352
2016-03-19T12:56:22.629Z,352
2016-03-19T12:57:22.615Z,352
2016-03-19T12:58:22.618Z,356
2016-03-19T12:59:22.621Z,352
2016-03-19T13:00:22.623Z,372
2016-03-19T13:01:22.627Z,384
2016-03-19T13:02:22.613Z,396
2016-03-19T13:03:22.616Z,392
2016-03-19T13:04:22.618Z,404
2016-03-19T13:05:22.606Z,420
2016-03-19T13:06:22.593Z,428
2016-03-19T13:07:22.595Z,456
2016-03-19T13:08:22.598Z,468
2016-03-19T13:09:22.601Z,460
2016-03-19T13:10:22.587Z,464
2016-03-19T13:11:22.591Z,468
2016-03-19T13:12:22.593Z,460
2016-03-19T13:13:22.581Z,452
2016-03-19T13:14:22.583Z,452
2016-03-19T13:15:22.586Z,444
2016-03-19T13:16:22.573Z,440
2016-03-19T13:17:22.575Z,440
2016-03-19T13:18:22.563Z,440
2016-03-19T13:19:22.581Z,456
2016-03-19T13:20:22.568Z,464
2016-03-19T13:21:22.571Z,472
2016-03-19T13:22:22.605Z,476
2016-03-19T13:23:22.560Z,476
2016-03-19T13:24:22.563Z,476
2016-03-19T13:25:22.566Z,480
2016-03-19T13:26:22.569Z,480
2016-03-19T13:27:22.571Z,480
2016-03-19T13:28:22.557Z,484
2016-03-19T13:29:22.560Z,488
2016-03-19T13:30:22.563Z,488
2016-03-19T13:31:22.707Z,500
2016-03-19T13:32:22.554Z,512
2016-03-19T13:33:22.556Z,528
2016-03-19T13:34:22.559Z,544
2016-03-19T13:35:22.576Z,568
2016-03-19T13:36:22.565Z,584
2016-03-19T13:37:22.535Z,600
2016-03-19T13:38:22.538Z,612
2016-03-19T13:39:22.525Z,616
2016-03-19T13:40:22.543Z,620
2016-03-19T13:41:22.546Z,620
2016-03-19T13:42:22.534Z,620
2016-03-19T13:43:22.537Z,616
2016-03-19T13:44:22.648Z,612
2016-03-19T13:45:22.542Z,592
2016-03-19T13:46:22.529Z,584
2016-03-19T13:47:22.516Z,572
2016-03-19T13:48:22.518Z,532
2016-03-19T13:49:22.521Z,492
2016-03-19T13:50:22.524Z,480
2016-03-19T13:51:22.527Z,448
2016-03-19T13:52:22.530Z,408
2016-03-19T13:53:22.533Z,376
2016-03-19T13:54:22.549Z,368
2016-03-19T13:55:22.537Z,364
2016-03-19T13:56:22.540Z,360
2016-03-19T13:57:22.543Z,356
2016-03-19T13:58:22.373Z,348
2016-03-19T13:59:22.548Z,348
2016-03-19T14:00:22.519Z,348
2016-03-19T14:01:22.521Z,336
2016-03-19T14:02:22.525Z,324
2016-03-19T14:03:22.527Z,324
2016-03-19T14:04:22.530Z,324
2016-03-19T14:05:22.533Z,324
2016-03-19T14:06:22.551Z,268
2016-03-19T14:07:22.523Z,264
2016-03-19T14:08:22.525Z,272
2016-03-19T14:09:22.559Z,280
2016-03-19T14:10:22.531Z,276
2016-03-19T14:11:22.534Z,268
2016-03-19T14:12:22.551Z,264
2016-03-19T14:13:22.554Z,264